Nearby METAR Reports

This page may be slow to load as it queries the National Weather Service for data.

KBIS - Bismarck, North Dakota, USA
Distance from station: S 10mi, 15km
Updated: Mon, 17-May-2021 10:52pm CDT
Clear
Clear
 Wind from S
Wind: S 10 mph , 17 km/h
Temperature: 66°F , 19°C
Dew Point: 48°F , 9°C
Humidity: 52%
Barometer: 29.97 inHg , 1014.9 hPa
Clouds: Clear
Visibility: 10 miles , 16 km
2021/05/18 03:52 KBIS 180352Z 17009KT 10SM CLR 19/09 A2997 RMK AO2 SLP142 T01890094
KDIK - Dickinson, North Dakota, USA
Distance from station: W 95mi, 154km
Updated: Mon, 17-May-2021 10:56pm CDT
Clear
Clear
 Wind from SSE
Wind: SSE 14 mph , 22 km/h
Temperature: 57°F , 14°C
Dew Point: 45°F , 7°C
Humidity: 63%
Barometer: 29.90 inHg , 1012.5 hPa
Clouds: Clear
Visibility: 10 miles , 16 km
2021/05/18 03:56 KDIK 180356Z AUTO 16012KT 10SM CLR 14/07 A2990 RMK AO2 SLP117 T01440072
 
KXWA - Williston, North Dakota, USA
Distance from station: NNW 2mi, 2km
Updated: Mon, 17-May-2021 10:51pm CDT
Clear
Clear
 Wind from S
Wind: S 14 mph , 22 km/h
Temperature: 66°F , 19°C
Dew Point: 46°F , 8°C
Humidity: 49%
Barometer: 29.84 inHg , 1010.5 hPa
Clouds: Clear
Visibility: 10 miles , 16 km
2021/05/18 03:51 KXWA 180351Z AUTO 17012KT 10SM CLR 19/08 A2984 RMK AO2 SLP102 T01890078
KFAR - Fargo, North Dakota, USA
Distance from station: NNW 4mi, 7km
Updated: Mon, 17-May-2021 10:53pm CDT
Clear
Clear
 Wind from SSE
Wind: SSE 9 mph , 15 km/h
Temperature: 72°F , 22°C
Dew Point: 41°F , 5°C
Humidity: 33%
Barometer: 30.02 inHg , 1016.6 hPa
Clouds: Clear
Visibility: 10 miles , 16 km
2021/05/18 03:53 KFAR 180353Z 15008KT 10SM CLR 22/05 A3002 RMK AO2 SLP162 T02170050
 
KGFK - Grand Forks, North Dakota, USA
Distance from station: NNW 76mi, 123km
Updated: Mon, 17-May-2021 10:53pm CDT
Clear
Clear
 Wind from S
Wind: S 10 mph , 17 km/h
Temperature: 66°F , 19°C
Dew Point: 34°F , 1°C
Humidity: 30%
Barometer: 29.99 inHg , 1015.6 hPa
Clouds: Clear
Visibility: 10 miles , 16 km
2021/05/18 03:53 KGFK 180353Z 18009KT 10SM CLR 19/01 A2999 RMK AO2 SLP153 T01890011
KMOT - Minot, North Dakota, USA
Distance from station: E 109mi, 175km
Updated: Mon, 17-May-2021 10:54pm CDT
Clear
Clear
 Wind from SSE
Wind: SSE 13 mph , 20 km/h
Temperature: 68°F , 20°C
Dew Point: 37°F , 3°C
Humidity: 33%
Barometer: 29.90 inHg , 1012.5 hPa
Clouds: Clear
Visibility: 10 miles , 16 km
2021/05/18 03:54 KMOT 180354Z AUTO 16011KT 10SM CLR 20/03 A2990 RMK AO2 SLP118 T02000033